Flight Track Log - Related Links

Times and Time Zones

All times are in EDT time to prevent confusion due to time zone crossing. See the EJA605 flight status page for this flight to view local times or setup timezone preferences in your user account.


Time Position Orientation Groundspeed Altitude Reporting Facility
EDT Latitude Longitude Course Direction KTS MPH feet Rate Location/Type
Fri 06:05:16 PM 41.9081 -86.6314 318° Northwest 253 291 4,100  Level Chicago Center
Fri 06:06:18 PM 41.9583 -86.6933 318° Northwest 248 285 4,000 -48 Descending Chicago Center
Fri 06:07:00 PM 41.8385 -86.8143 275° West  Level Estimated
Fri 06:07:21 PM 42.0158 -86.7633 318° Northwest 250 288 4,000  Level Chicago Center
Fri 06:08:00 PM 41.8819 -86.8802 311° West  Level FlightAware Approximate
Fri 06:08:23 PM 42.0589 -86.8189 316° Northwest 244 281 4,000  Level Chicago Center
Fri 06:09:25 PM 42.1114 -86.8842 317° Northwest 254 292 4,000  Level Chicago Center
Fri 06:10:27 PM 42.1561 -86.9767 303° West 255 293 4,000 -48 Level Chicago Center
Fri 06:11:29 PM 42.1625 -87.0589 276° West 249 287 3,900 -48 Descending Chicago Center
Fri 06:12:31 PM 42.1692 -87.1686 275° West 247 284 3,900  Level Chicago Center
Fri 06:13:33 PM 42.1764 -87.2594 276° West 245 282 3,900  Level Chicago Center
Fri 06:14:35 PM 42.1911 -87.3464 283° West 242 278 3,900  Level Chicago Center
Fri 06:15:37 PM 42.2089 -87.4325 286° West 241 277 3,900 -290 Level Chicago Center
Fri 06:16:39 PM 42.2250 -87.5197 284° West 241 277 3,300 -484 Descending Chicago Center
Fri 06:17:41 PM 42.2431 -87.6192 284° West 237 273 2,900 -192 Descending Chicago Center
Fri 06:18:44 PM 42.2564 -87.6917 284° West 224 258 2,900  Level Chicago Center
Fri 06:19:46 PM 42.2711 -87.7606 286° West 210 242 2,900  Level Chicago Center
Fri 06:20:48 PM 42.2836 -87.8278 284° West 199 229 2,900  Level Chicago Center
Fri 06:21:50 PM 42.2956 -87.8975 283° West 194 223 2,900 48 Level Chicago Center
Fri 06:22:52 PM 42.2836 -87.9786 259° West 196 226 3,000 -242 Climbing Chicago Center
Fri 06:23:54 PM 42.2319 -87.9653 169° South 198 228 2,400 -484 Descending Chicago Center
Fri 06:24:56 PM 42.1850 -87.9403 158° South 189 217 2,000 -290 Descending Chicago Center
Fri 06:25:58 PM 42.1392 -87.9147 158° South 188 216 1,800 -194 Descending Chicago Center

Login

Don't have an account? Register now (free) for customized features, flight alerts, and more!